createdAt,value
2022-10-13T00:05:01.030Z,8.00
2022-10-13T00:07:35.138Z,8.00
2022-10-13T00:10:05.816Z,8.00
2022-10-13T00:12:38.279Z,8.00
2022-10-13T00:15:19.166Z,8.00
2022-10-13T00:18:17.634Z,8.00
2022-10-13T00:33:53.578Z,8.00
2022-10-13T00:37:16.647Z,8.00
2022-10-13T00:48:33.177Z,7.90
2022-10-13T00:51:04.895Z,7.90
2022-10-13T00:53:35.161Z,7.90
2022-10-13T00:56:03.337Z,7.80
2022-10-13T00:58:38.211Z,7.80
2022-10-13T01:01:06.906Z,7.80
2022-10-13T01:03:35.008Z,7.80
2022-10-13T01:06:05.235Z,7.80
2022-10-13T01:08:33.649Z,7.70
2022-10-13T01:16:32.502Z,7.70
2022-10-13T01:24:38.572Z,7.70
2022-10-13T01:27:17.877Z,7.70
2022-10-13T01:30:17.599Z,7.60
2022-10-13T01:33:20.320Z,7.50
2022-10-13T01:36:03.501Z,7.50
2022-10-13T01:39:02.706Z,7.40
2022-10-13T01:41:44.669Z,7.40
2022-10-13T01:44:34.491Z,7.40
2022-10-13T01:48:05.556Z,7.30
2022-10-13T01:51:06.566Z,7.30
2022-10-13T01:54:18.521Z,7.30
2022-10-13T01:57:12.998Z,7.30
2022-10-13T02:03:54.455Z,7.40
2022-10-13T02:06:43.511Z,7.40
2022-10-13T02:09:49.805Z,7.40
2022-10-13T02:12:41.811Z,7.40
2022-10-13T02:15:19.602Z,7.40
2022-10-13T02:17:47.587Z,7.40
2022-10-13T02:20:17.272Z,7.50
2022-10-13T02:22:54.894Z,7.50
2022-10-13T02:25:23.250Z,7.50
2022-10-13T02:27:53.128Z,7.50
2022-10-13T02:30:28.467Z,7.50
2022-10-13T02:32:58.365Z,7.50
2022-10-13T02:35:26.071Z,7.50
2022-10-13T02:37:53.708Z,7.50
2022-10-13T02:40:21.258Z,7.50
2022-10-13T02:42:48.494Z,7.50
2022-10-13T02:45:15.798Z,7.60
2022-10-13T02:47:43.240Z,7.60
2022-10-13T02:50:11.278Z,7.60
2022-10-13T02:52:41.304Z,7.60
2022-10-13T03:20:18.775Z,7.50
2022-10-13T03:23:04.075Z,7.50
2022-10-13T03:25:39.838Z,7.50
2022-10-13T03:28:12.878Z,7.50
2022-10-13T03:30:40.857Z,7.60
2022-10-13T03:33:12.255Z,7.60
2022-10-13T03:35:40.033Z,7.60
2022-10-13T03:39:19.575Z,7.60
2022-10-13T03:42:13.083Z,7.60
2022-10-13T03:44:44.592Z,7.60
2022-10-13T03:47:11.949Z,7.70
2022-10-13T03:59:36.777Z,7.70
2022-10-13T04:07:17.497Z,7.70
2022-10-13T04:14:00.951Z,7.50
2022-10-13T04:16:30.447Z,7.50
2022-10-13T04:19:07.955Z,7.40
2022-10-13T04:21:36.142Z,7.40
2022-10-13T04:24:04.731Z,7.30
2022-10-13T04:26:35.448Z,7.40
2022-10-13T04:29:09.412Z,7.30
2022-10-13T04:31:37.320Z,7.40
2022-10-13T04:34:04.664Z,7.40
2022-10-13T04:36:31.912Z,7.40
2022-10-13T04:38:59.590Z,7.40
2022-10-13T04:41:27.104Z,7.50
2022-10-13T04:43:55.193Z,7.50
2022-10-13T04:46:25.678Z,7.50
2022-10-13T04:48:55.802Z,7.50
2022-10-13T04:51:29.409Z,7.50
2022-10-13T04:53:59.119Z,7.50
2022-10-13T04:56:27.081Z,7.50
2022-10-13T04:59:24.021Z,7.50
2022-10-13T05:02:16.761Z,7.50
2022-10-13T05:04:46.972Z,7.50
2022-10-13T05:07:19.628Z,7.50
2022-10-13T05:12:41.164Z,7.60
2022-10-13T05:15:25.126Z,7.70
2022-10-13T05:17:55.246Z,7.60
2022-10-13T05:20:39.745Z,7.70
2022-10-13T05:23:13.701Z,7.70
2022-10-13T05:26:21.111Z,7.70
2022-10-13T05:31:51.246Z,7.60
2022-10-13T05:34:37.621Z,7.50
2022-10-13T05:37:07.315Z,7.50
2022-10-13T05:39:40.463Z,7.50
2022-10-13T05:42:16.617Z,7.50
2022-10-13T05:44:48.877Z,7.50
2022-10-13T05:47:26.954Z,7.40
2022-10-13T05:49:57.147Z,7.40
2022-10-13T05:52:38.512Z,7.40
2022-10-13T05:55:50.707Z,7.40
2022-10-13T06:15:46.693Z,7.40
2022-10-13T06:21:30.278Z,7.40
2022-10-13T06:24:06.836Z,7.40
2022-10-13T06:26:40.658Z,7.40
2022-10-13T06:32:47.810Z,7.40
2022-10-13T06:45:32.129Z,7.40
2022-10-13T06:48:33.479Z,7.60
2022-10-13T06:51:21.372Z,7.60
2022-10-13T06:54:11.872Z,7.70
2022-10-13T07:01:19.509Z,7.70
2022-10-13T07:04:33.677Z,7.70
2022-10-13T07:07:54.309Z,7.70
2022-10-13T07:15:05.046Z,7.60
2022-10-13T07:17:36.128Z,7.70
2022-10-13T07:20:08.806Z,7.70
2022-10-13T07:22:35.960Z,7.70
2022-10-13T07:25:03.791Z,7.70
2022-10-13T07:27:31.064Z,7.70
2022-10-13T07:29:58.289Z,7.80
2022-10-13T07:32:25.480Z,7.80
2022-10-13T07:34:54.044Z,7.80
2022-10-13T07:37:21.782Z,7.80
2022-10-13T07:39:49.220Z,7.80
2022-10-13T07:42:17.261Z,7.80
2022-10-13T07:44:44.525Z,7.90
2022-10-13T07:47:11.841Z,7.90
2022-10-13T07:49:39.017Z,7.90
2022-10-13T07:52:06.146Z,7.90
2022-10-13T07:54:33.320Z,7.90
2022-10-13T07:57:00.418Z,8.00
2022-10-13T07:59:27.577Z,8.00
2022-10-13T08:01:54.906Z,8.00
2022-10-13T08:04:22.140Z,8.10
2022-10-13T08:06:49.324Z,8.10
2022-10-13T08:09:16.698Z,8.20
2022-10-13T08:11:44.057Z,8.30
2022-10-13T08:14:13.388Z,8.40
2022-10-13T08:16:42.111Z,8.50
2022-10-13T08:19:09.494Z,8.50
2022-10-13T08:21:57.769Z,8.60
2022-10-13T08:24:24.496Z,8.60
2022-10-13T08:26:51.995Z,8.70
2022-10-13T08:29:23.542Z,8.70
2022-10-13T08:31:55.175Z,8.70
2022-10-13T08:34:26.189Z,8.80
2022-10-13T08:36:56.467Z,8.80
2022-10-13T08:39:25.105Z,8.90
2022-10-13T08:41:53.277Z,8.90
2022-10-13T08:47:25.468Z,9.00
2022-10-13T08:49:56.550Z,9.10
2022-10-13T08:52:29.945Z,9.10
2022-10-13T08:54:58.513Z,9.20
2022-10-13T08:57:26.706Z,9.20
2022-10-13T08:59:53.940Z,9.30
2022-10-13T09:02:29.859Z,9.30
2022-10-13T09:05:01.994Z,9.40
2022-10-13T09:07:35.757Z,9.40
2022-10-13T09:10:03.752Z,9.50
2022-10-13T09:12:31.635Z,9.50
2022-10-13T09:15:03.468Z,9.50
2022-10-13T09:17:31.327Z,9.50
2022-10-13T09:20:16.767Z,9.50
2022-10-13T09:22:45.668Z,9.40
2022-10-13T09:25:22.653Z,9.40
2022-10-13T09:28:01.784Z,9.40
2022-10-13T09:30:38.521Z,9.50
2022-10-13T09:33:09.167Z,9.50
2022-10-13T09:35:45.424Z,9.60
2022-10-13T09:38:17.015Z,9.60
2022-10-13T09:41:01.808Z,9.70
2022-10-13T09:43:43.605Z,9.80
2022-10-13T09:46:24.428Z,9.90
2022-10-13T09:48:54.344Z,10.00
2022-10-13T09:51:37.464Z,10.10
2022-10-13T09:54:29.168Z,10.10
2022-10-13T09:57:04.005Z,10.20
2022-10-13T09:59:35.495Z,10.20
2022-10-13T10:02:26.477Z,10.20
2022-10-13T10:04:59.580Z,10.20
2022-10-13T10:07:31.848Z,10.20
2022-10-13T10:10:05.348Z,10.20
2022-10-13T10:12:37.152Z,10.30
2022-10-13T10:15:20.501Z,10.30
2022-10-13T10:17:55.986Z,10.40
2022-10-13T10:20:32.362Z,10.30
2022-10-13T10:23:14.617Z,10.30
2022-10-13T10:26:05.295Z,10.20
2022-10-13T10:28:48.178Z,10.10
2022-10-13T10:31:43.086Z,10.00
2022-10-13T10:34:28.668Z,9.90
2022-10-13T10:37:21.422Z,9.90
2022-10-13T10:40:05.658Z,9.90
2022-10-13T10:42:39.155Z,9.90
2022-10-13T10:45:18.330Z,10.00
2022-10-13T10:47:49.550Z,10.00
2022-10-13T10:50:18.909Z,10.10
2022-10-13T10:53:03.024Z,10.10
2022-10-13T10:55:43.112Z,10.20
2022-10-13T10:58:33.990Z,10.20
2022-10-13T11:01:30.469Z,10.30
2022-10-13T11:04:16.528Z,10.40
2022-10-13T11:06:43.856Z,10.40
2022-10-13T11:09:12.339Z,10.50
2022-10-13T11:11:41.970Z,10.50
2022-10-13T11:14:12.422Z,10.60
2022-10-13T11:16:59.306Z,10.70
2022-10-13T11:19:29.547Z,10.80
2022-10-13T11:21:59.848Z,10.90
2022-10-13T11:24:41.998Z,10.90
2022-10-13T11:27:26.613Z,11.00
2022-10-13T11:29:59.914Z,11.10
2022-10-13T11:32:27.062Z,11.20
2022-10-13T11:35:06.608Z,11.20
2022-10-13T11:38:06.849Z,11.30
2022-10-13T11:40:53.866Z,11.30
2022-10-13T11:43:55.669Z,11.40
2022-10-13T11:47:02.899Z,11.40
2022-10-13T11:50:03.384Z,11.50
2022-10-13T11:52:57.728Z,11.50
2022-10-13T11:55:46.639Z,11.60
2022-10-13T11:58:30.279Z,11.70
2022-10-13T12:01:06.600Z,11.70
2022-10-13T12:03:45.439Z,11.80
2022-10-13T12:06:34.323Z,11.90
2022-10-13T12:09:19.607Z,12.00
2022-10-13T12:11:55.617Z,12.20
2022-10-13T12:17:28.486Z,12.50
2022-10-13T12:20:01.522Z,12.60
2022-10-13T12:22:29.576Z,12.70
2022-10-13T12:25:07.304Z,12.70
2022-10-13T12:27:48.002Z,12.80
2022-10-13T12:30:27.847Z,12.80
2022-10-13T12:32:58.085Z,12.90
2022-10-13T12:35:29.160Z,12.90
2022-10-13T12:37:57.678Z,13.00
2022-10-13T12:40:26.045Z,13.10
2022-10-13T12:42:53.722Z,13.10
2022-10-13T12:45:24.406Z,13.20
2022-10-13T12:47:54.173Z,13.20
2022-10-13T12:50:30.234Z,13.20
2022-10-13T12:53:08.689Z,13.20
2022-10-13T12:56:00.722Z,13.30
2022-10-13T12:58:31.141Z,13.30
2022-10-13T13:01:08.986Z,13.40
2022-10-13T13:03:38.995Z,13.40
2022-10-13T13:06:15.109Z,13.40
2022-10-13T13:09:07.607Z,13.40
2022-10-13T13:11:37.755Z,13.50
2022-10-13T13:14:23.384Z,13.50
2022-10-13T13:17:45.434Z,13.50
2022-10-13T13:20:21.801Z,13.40
2022-10-13T13:22:50.863Z,13.40
2022-10-13T13:25:17.919Z,13.30
2022-10-13T13:27:45.298Z,13.30
2022-10-13T13:30:19.781Z,13.30
2022-10-13T13:32:48.022Z,13.30
2022-10-13T13:35:15.504Z,13.20
2022-10-13T13:37:49.944Z,13.30
2022-10-13T13:40:23.209Z,13.30
2022-10-13T13:42:50.720Z,13.30
2022-10-13T13:45:20.236Z,13.30
2022-10-13T13:47:48.665Z,13.30
2022-10-13T13:50:18.399Z,13.30
2022-10-13T13:52:56.751Z,13.30
2022-10-13T13:55:24.968Z,13.40
2022-10-13T13:57:52.289Z,13.50
2022-10-13T14:00:20.429Z,13.60
2022-10-13T14:02:53.412Z,13.60
2022-10-13T14:05:20.483Z,13.60
2022-10-13T14:07:47.806Z,13.70
2022-10-13T14:10:15.124Z,13.80
2022-10-13T14:12:42.269Z,13.80
2022-10-13T14:15:10.000Z,13.90
2022-10-13T14:17:37.198Z,13.90
2022-10-13T14:20:04.980Z,13.90
2022-10-13T14:22:39.084Z,14.00
2022-10-13T14:25:07.637Z,14.00
2022-10-13T14:27:36.209Z,14.10
2022-10-13T14:30:08.506Z,14.10
2022-10-13T14:32:37.695Z,14.20
2022-10-13T14:35:06.101Z,14.20
2022-10-13T14:37:34.142Z,14.20
2022-10-13T14:40:01.801Z,14.20
2022-10-13T14:42:29.276Z,14.10
2022-10-13T14:44:56.745Z,14.00
2022-10-13T14:47:24.548Z,13.90
2022-10-13T14:49:51.863Z,13.70
2022-10-13T14:52:19.068Z,13.60
2022-10-13T14:54:46.714Z,13.50
2022-10-13T14:57:21.462Z,13.40
2022-10-13T14:59:48.927Z,13.40
2022-10-13T15:02:16.425Z,13.30
2022-10-13T15:04:52.993Z,13.20
2022-10-13T15:07:20.445Z,13.10
2022-10-13T15:09:52.754Z,13.10
2022-10-13T15:12:28.408Z,13.10
2022-10-13T15:14:55.461Z,13.00
2022-10-13T15:17:22.623Z,13.00
2022-10-13T15:19:50.108Z,13.00
2022-10-13T15:22:17.324Z,13.00
2022-10-13T15:24:45.713Z,13.00
2022-10-13T15:27:13.058Z,13.10
2022-10-13T15:29:40.358Z,13.20
2022-10-13T15:32:13.634Z,13.30
2022-10-13T15:34:41.617Z,13.30
2022-10-13T15:37:08.931Z,13.40
2022-10-13T15:39:36.409Z,13.30
2022-10-13T15:42:05.114Z,13.30
2022-10-13T15:44:50.954Z,13.20
2022-10-13T15:47:20.354Z,13.10
2022-10-13T15:49:47.497Z,13.00
2022-10-13T15:52:14.681Z,13.00
2022-10-13T15:54:41.934Z,12.90
2022-10-13T15:57:09.061Z,12.80
2022-10-13T15:59:36.368Z,12.80
2022-10-13T16:02:03.513Z,12.70
2022-10-13T16:04:36.341Z,12.70
2022-10-13T16:07:04.752Z,12.60
2022-10-13T16:09:32.054Z,12.60
2022-10-13T16:11:59.244Z,12.50
2022-10-13T16:14:26.484Z,12.40
2022-10-13T16:16:53.666Z,12.40
2022-10-13T16:19:20.839Z,12.30
2022-10-13T16:21:49.179Z,12.30
2022-10-13T16:24:16.379Z,12.20
2022-10-13T16:26:43.830Z,12.20
2022-10-13T16:29:11.075Z,12.10
2022-10-13T16:31:38.226Z,12.10
2022-10-13T16:34:05.379Z,12.10
2022-10-13T16:36:32.594Z,12.10
2022-10-13T16:38:59.848Z,12.10
2022-10-13T16:41:27.251Z,12.00
2022-10-13T16:43:55.118Z,12.00
2022-10-13T16:47:19.282Z,12.00
2022-10-13T16:49:47.339Z,12.00
2022-10-13T16:52:15.841Z,12.00
2022-10-13T16:54:44.132Z,12.00
2022-10-13T16:57:11.343Z,12.00
2022-10-13T16:59:38.707Z,12.00
2022-10-13T17:02:05.995Z,12.00
2022-10-13T17:04:33.350Z,12.00
2022-10-13T17:07:00.830Z,12.00
2022-10-13T17:09:28.075Z,12.00
2022-10-13T17:11:55.181Z,12.00
2022-10-13T17:14:22.329Z,12.00
2022-10-13T17:16:51.316Z,11.90
2022-10-13T17:19:21.293Z,11.90
2022-10-13T17:21:48.506Z,11.80
2022-10-13T17:24:17.199Z,11.90
2022-10-13T17:26:44.506Z,11.80
2022-10-13T17:29:11.807Z,11.80
2022-10-13T17:31:38.895Z,11.80
2022-10-13T17:34:06.493Z,11.80
2022-10-13T17:36:36.426Z,11.70
2022-10-13T17:39:09.826Z,11.70
2022-10-13T17:41:40.562Z,11.70
2022-10-13T17:44:07.755Z,11.60
2022-10-13T17:46:37.860Z,11.60
2022-10-13T17:49:10.815Z,11.60
2022-10-13T17:51:39.193Z,11.60
2022-10-13T17:54:09.185Z,11.50
2022-10-13T17:56:38.719Z,11.50
2022-10-13T17:59:06.511Z,11.50
2022-10-13T18:01:34.896Z,11.50
2022-10-13T18:04:08.640Z,11.40
2022-10-13T18:06:40.681Z,11.40
2022-10-13T18:09:12.277Z,11.40
2022-10-13T18:11:43.324Z,11.40
2022-10-13T18:14:14.371Z,11.40
2022-10-13T18:16:43.448Z,11.40
2022-10-13T18:19:13.681Z,11.30
2022-10-13T18:21:41.025Z,11.30
2022-10-13T18:24:11.370Z,11.30
2022-10-13T18:26:38.652Z,11.30
2022-10-13T18:29:09.240Z,11.30
2022-10-13T18:31:38.584Z,11.30
2022-10-13T18:34:09.333Z,11.30
2022-10-13T18:36:37.577Z,11.30
2022-10-13T18:39:23.103Z,11.30
2022-10-13T18:41:54.562Z,11.30
2022-10-13T18:44:22.793Z,11.30
2022-10-13T18:46:52.649Z,11.20
2022-10-13T18:49:31.200Z,11.20
2022-10-13T18:52:00.297Z,11.20
2022-10-13T18:54:29.092Z,11.20
2022-10-13T18:56:56.544Z,11.20
2022-10-13T18:59:23.970Z,11.10
2022-10-13T19:01:51.112Z,11.10
2022-10-13T19:04:18.431Z,11.10
2022-10-13T19:06:46.539Z,11.10
2022-10-13T19:09:15.500Z,11.10
2022-10-13T19:11:43.697Z,11.10
2022-10-13T19:14:13.284Z,11.00
2022-10-13T19:16:42.802Z,11.00
2022-10-13T19:19:10.319Z,11.00
2022-10-13T19:21:39.237Z,11.00
2022-10-13T19:24:07.684Z,11.00
2022-10-13T19:26:36.873Z,10.90
2022-10-13T19:29:07.815Z,10.90
2022-10-13T19:31:36.765Z,10.90
2022-10-13T19:34:07.826Z,10.90
2022-10-13T19:36:39.319Z,10.90
2022-10-13T19:39:11.895Z,10.90
2022-10-13T19:41:40.601Z,10.90
2022-10-13T19:44:08.118Z,10.90
2022-10-13T19:46:43.960Z,10.90
2022-10-13T19:49:12.376Z,10.90
2022-10-13T19:51:45.249Z,10.90
2022-10-13T19:54:12.793Z,10.90
2022-10-13T19:56:46.693Z,10.90
2022-10-13T19:59:14.541Z,11.00
2022-10-13T20:01:41.829Z,11.00
2022-10-13T20:04:14.621Z,10.90
2022-10-13T20:06:44.106Z,10.90
2022-10-13T20:09:11.466Z,10.90
2022-10-13T20:11:38.652Z,10.90
2022-10-13T20:14:05.798Z,10.90
2022-10-13T20:16:33.173Z,10.90
2022-10-13T20:19:01.279Z,10.90
2022-10-13T20:21:28.691Z,10.90
2022-10-13T20:23:56.948Z,10.80
2022-10-13T20:26:24.722Z,10.90
2022-10-13T20:28:53.321Z,10.90
2022-10-13T20:31:22.518Z,10.90
2022-10-13T20:33:55.145Z,10.90
2022-10-13T20:36:24.373Z,10.90
2022-10-13T20:38:51.686Z,10.90
2022-10-13T20:41:30.786Z,10.90
2022-10-13T20:44:00.390Z,10.90
2022-10-13T20:46:28.446Z,11.00
2022-10-13T20:49:13.784Z,11.00
2022-10-13T20:51:42.900Z,11.00
2022-10-13T20:54:11.919Z,11.00
2022-10-13T20:56:39.673Z,11.00
2022-10-13T20:59:10.123Z,11.00
2022-10-13T21:01:37.713Z,11.00
2022-10-13T21:04:05.287Z,11.00
2022-10-13T21:06:33.191Z,11.00
2022-10-13T21:09:00.968Z,11.00
2022-10-13T21:11:28.117Z,11.00
2022-10-13T21:13:55.561Z,11.00
2022-10-13T21:16:27.404Z,11.00
2022-10-13T21:18:57.379Z,11.00
2022-10-13T21:21:27.092Z,11.00
2022-10-13T21:23:56.760Z,11.00
2022-10-13T21:26:24.937Z,11.00
2022-10-13T21:28:52.572Z,11.00
2022-10-13T21:31:21.855Z,10.90
2022-10-13T21:33:49.504Z,10.90
2022-10-13T21:36:21.726Z,10.80
2022-10-13T21:39:07.936Z,10.80
2022-10-13T21:41:35.607Z,10.70
2022-10-13T21:44:03.720Z,10.70
2022-10-13T21:46:34.912Z,10.70
2022-10-13T21:49:05.255Z,10.70
2022-10-13T21:51:37.955Z,10.70
2022-10-13T21:54:13.580Z,10.70
2022-10-13T21:57:06.928Z,10.60
2022-10-13T21:59:34.539Z,10.50
2022-10-13T22:02:02.273Z,10.50
2022-10-13T22:04:29.552Z,10.50
2022-10-13T22:06:56.848Z,10.50
2022-10-13T22:09:25.236Z,10.50
2022-10-13T22:11:56.664Z,10.50
2022-10-13T22:14:23.883Z,10.50
2022-10-13T22:16:52.764Z,10.50
2022-10-13T22:19:22.881Z,10.50
2022-10-13T22:21:50.187Z,10.50
2022-10-13T22:24:21.852Z,10.50
2022-10-13T22:26:50.343Z,10.50
2022-10-13T22:29:20.359Z,10.50
2022-10-13T22:31:47.934Z,10.50
2022-10-13T22:34:15.629Z,10.50
2022-10-13T22:36:45.079Z,10.50
2022-10-13T22:39:39.383Z,10.50
2022-10-13T22:42:09.666Z,10.50
2022-10-13T22:44:37.275Z,10.50
2022-10-13T22:47:04.535Z,10.50
2022-10-13T22:49:31.928Z,10.50
2022-10-13T22:51:59.392Z,10.60
2022-10-13T22:54:26.678Z,10.60
2022-10-13T22:56:54.892Z,10.70
2022-10-13T22:59:22.000Z,10.70
2022-10-13T23:01:49.412Z,10.70
2022-10-13T23:04:16.585Z,10.70
2022-10-13T23:06:43.806Z,10.60
2022-10-13T23:09:13.880Z,10.60
2022-10-13T23:11:41.295Z,10.60
2022-10-13T23:14:11.498Z,10.60
2022-10-13T23:16:38.951Z,10.50
2022-10-13T23:19:06.439Z,10.50
2022-10-13T23:21:33.853Z,10.50
2022-10-13T23:24:03.627Z,10.50
2022-10-13T23:26:32.048Z,10.50
2022-10-13T23:28:59.732Z,10.50
2022-10-13T23:31:28.370Z,10.40
2022-10-13T23:34:00.511Z,10.40
2022-10-13T23:36:31.722Z,10.50
2022-10-13T23:39:01.732Z,10.40
2022-10-13T23:41:39.918Z,10.40
2022-10-13T23:44:07.343Z,10.40
2022-10-13T23:46:34.693Z,10.40
2022-10-13T23:49:01.899Z,10.40
2022-10-13T23:51:29.898Z,10.30
2022-10-13T23:53:58.938Z,10.30
2022-10-13T23:56:26.411Z,10.30
2022-10-13T23:58:53.699Z,10.30
